Accueil
METAR-TAF:

METAR-TAF

Aéroports :

Chambery / Aix-Les-Bains, France

Aéroport de Chambéry-Savoie

latitude: 45-39N, longitude: 005-53E, altitude: 235 m

Observation

Le bulletin a été fait il y a 25 minutes, à 16:00 UTC
Vent 12 kt de nord
Température 3°C
Humidité 60%
Pression 1009 hPa
Visibilité: 8000 m
Quelques nuages à une hauteur de 3500 ft
Ciel couvert à une hauteur de 4400 ft

METAR: LFLB 221600Z AUTO 36012KT 8000 FEW035 OVC044 03/M04 Q1009 NOSIG

Heure: 17:25 (16:25 UTC)

Prévision

Le bulletin a été fait il y a 5 heures et 25 minutes, à 11:00 UTC
Prévision valable du 22 à 12 UTC au 23 à 12 UTC
Vent 10 kt de nord
Visibilité: 7000 m
Nuages épars à une hauteur de 3000 ft
Nuages fragmentés à une hauteur de 5000 ft
Probabilité 30% :
Temporairement
du 22 à 12 UTC au 22 à 24 UTC

TAF: LFLB 221100Z 2212/2312 35010KT 7000 SCT030 BKN050 PROB30 TEMPO 2212/2224 NSC

Observations et prévisions météorologiques de plus de 4000 aéroports (messages METAR et TAF).

Les stations disponibles sont représentées par des disques jaunes et rouges sur la carte.

Passer la souris dessus pour voir le nom de la station.

Cliquer dessus pour voir les observations et prévisions météorologiques.

Pour changer de carte: cliquez sur les boutons verts avec une croix noire pour zoomer, sur le bouton vert avec un tiret pour effectuer un zoom arrière, ou sur les flèches vertes pour les cartes adjacentes.


METAR-TAF: